메인 페이지
METAR-TAF:

METAR-TAF

공항 :

야운데, 카메룬

위도: 03-50N, 경도: 011-31E, 고도: 751m

현재 날씨관측

예보는 9 시간 50분 전, 13:30시(UTC)에 발표되었습니다.
서북서6kt서남서풍과 북서풍을 오가는
온도 26°C
습도 79%
기압 1016 hPa
시정: 7000m
고도 1300ft 상공 구름 많음
고도 1600ft 상공 구름 조금, 적란운.

METAR: FKYS 211330Z 29006KT 250V320 7000 BKN013 FEW016CB 26/22 Q1016 TEMPO TS

시각: 00:20 (23:20 UTC)

예보

예보는 6 시간 20분 전, 17:00시(UTC)에 발표되었습니다.
예보 대상 시간: 21일 18시부터 22일 18시까지 (UTC)
6kt
시정: 7000m
고도 1300ft 상공 구름 많음
고도 2000ft 상공 구름 조금, 적란운.
일시적
21일 18시부터 21일 22시까지 (UTC)
시정: 2000m
뇌우, 비
전환 중
22일 00시부터 22일 02시까지 (UTC)
고도 600ft 상공 구름 많음
일시적
22일 03시부터 22일 08시까지 (UTC)
시정: 2000m
박무
확률 40%
22일 05시부터 22일 07시까지 (UTC)
시정: 0600m
안개
전환 중
22일 09시부터 22일 11시까지 (UTC)
고도 1600ft 상공 구름 많음

TAF: FKYS 211700Z 2118/2218 28006KT 7000 BKN013 FEW020CB TEMPO 2118/2122 2000 TSRA BECMG 2200/2202 BKN006 TEMPO 2203/2208 2000 BR PROB40 2205/2207 0600 FG BECMG 2209/2211 BKN016

4,000개 이상의 공항 관측 자료 및 예보 (METAR 및 TAF 보고).

지도상에서 검색 가능한 기상관측소가 노란 점과 빨간 점으로 표시되어 있습니다.

기상관측소 명을 보려면 표시 위로 마우스를 이동하세요.

날씨 관측과 예보를 보려면 클릭하세요.

지도 변경 : 확대하려면 엑스 표시가 있는 녹색 버튼, 축소하려면 빼기 표시가 있는 녹색 버튼, 다음 페이지의 지도를 보려면 녹색 화살표를 클릭하세요.


METAR-TAF: